METAR Data
IDs: Format: Raw Decoded Include TAF

Data at: 1549 UTC 03 Dec 2021

KBNO 031453Z AUTO 36003KT 10SM CLR M06/M07 A3023 RMK AO2 SLP263 I3000 T10561067 53001
KBNO 031353Z AUTO 00000KT 10SM CLR M04/M06 A3023 RMK AO2 SLP259 I1000 T10441061
KBNO 031253Z AUTO 00000KT 10SM CLR M04/M05 A3022 RMK AO2 SLP249 T10391050
KBNO 031153Z AUTO 32005KT 10SM CLR M03/M04 A3023 RMK AO2 SLP244 T10331044 10017 21039 51001
KBNO 031053Z AUTO 00000KT 10SM CLR M04/M05 A3023 RMK AO2 SLP242 T10391050
KBNO 030953Z AUTO 04003KT 10SM CLR M03/M06 A3023 RMK AO2 SLP242 T10331056
KBNO 030853Z AUTO 03006KT 10SM CLR M03/M05 A3023 RMK AO2 SLP242 T10281050 58001
KBNO 030753Z AUTO 32003KT 10SM CLR M02/M04 A3023 RMK AO2 SLP246 T10171039 401671044
KBNO 030653Z AUTO 00000KT 10SM CLR M02/M04 A3024 RMK AO2 SLP250 T10171039
KBNO 030553Z AUTO 31005KT 10SM CLR 02/M02 A3023 RMK AO2 SLP248 T00171017 10144 20006 53008
KBNO 030453Z AUTO 00000KT 10SM CLR 01/M02 A3022 RMK AO2 SLP248 T00111017
KBNO 030353Z AUTO 32008KT 10SM CLR 03/M01 A3022 RMK AO2 SLP253 T00281006
KBNO 030253Z AUTO 30008KT 10SM CLR 04/01 A3021 RMK AO2 SLP251 T00440006 53013
KBNO 030153Z AUTO 32007KT 10SM CLR 04/01 A3018 RMK AO2 SLP241 T00440006
KBNO 030053Z AUTO 30004KT 10SM CLR 08/02 A3017 RMK AO2 SLP228 T00830017
KBNO 022353Z AUTO 33004KT 10SM CLR 14/04 A3016 RMK AO2 SLP215 T01440039 10167 20061 55008
KBNO 022253Z AUTO 00000KT 10SM CLR 16/04 A3016 RMK AO2 SLP213 T01610044
KBNO 022153Z AUTO 01004KT 10SM CLR 16/04 A3017 RMK AO2 SLP217 T01560044
KBNO 022053Z AUTO 00000KT 10SM CLR 13/03 A3019 RMK AO2 SLP226 T01330033 58015
KBNO 021953Z AUTO 00000KT 10SM CLR 11/02 A3021 RMK AO2 SLP238 T01110022
KBNO 021853Z AUTO 16003KT 10SM CLR 09/02 A3022 RMK AO2 SLP244 T00890022
KBNO 021753Z AUTO 00000KT 10SM CLR 06/01 A3024 RMK AO2 SLP252 I6000 T00610011 10061 21044 51008
KBNO 021653Z AUTO 00000KT 10SM CLR 03/01 A3023 RMK AO2 SLP254 T00330011
KBNO 021553Z AUTO 32003KT 10SM FEW001 M02/M03 A3022 RMK AO2 SLP257 I1000 T10171028
KBNO 021530Z AUTO 00000KT 10SM FEW001 M03/M04 A3021 RMK AO2 I1000 T10331044
KBNO 021453Z AUTO 00000KT 10SM CLR M04/M06 A3021 RMK AO2 SLP257 T10441056 53002
KBNO 021353Z AUTO 00000KT 10SM CLR M03/M05 A3020 RMK AO2 SLP248 T10331050
KBNO 021253Z AUTO 30004KT 10SM CLR M03/M05 A3020 RMK AO2 SLP244 T10331050
KBNO 021153Z AUTO 31005KT 10SM CLR M02/M03 A3020 RMK AO2 SLP232 T10171033 10006 21028 58004
KBNO 021053Z AUTO 00000KT 10SM CLR M02/M03 A3021 RMK AO2 SLP234 T10171033
KBNO 020953Z AUTO 28003KT 10SM CLR M01/M04 A3022 RMK AO2 SLP233 T10111039
KBNO 020853Z AUTO 00000KT 10SM CLR M02/M03 A3022 RMK AO2 SLP235 T10171033 58005
KBNO 020753Z AUTO 35003KT 10SM CLR M02/M04 A3023 RMK AO2 SLP242 T10171039 401501022
KBNO 020653Z AUTO 00000KT 10SM CLR M01/M03 A3023 RMK AO2 SLP246 T10061028
KBNO 020553Z AUTO 30005KT 10SM CLR 00/M02 A3024 RMK AO2 SLP252 T00001017 10139 20000 56002
KBNO 020453Z AUTO 29004KT 10SM CLR 01/M01 A3024 RMK AO2 SLP256 T00111011
KBNO 020353Z AUTO 00000KT 10SM CLR 01/M02 A3024 RMK AO2 SLP263 T00061017